sensor_id;sensor_type;location;lat;lon;timestamp;temperature;humidity
68943;DHT22;60852;52.190;4.422;2022-09-09T00:00:33;17.55;80.67
68943;DHT22;60852;52.190;4.422;2022-09-09T00:03:12;17.52;80.56
68943;DHT22;60852;52.190;4.422;2022-09-09T00:08:20;17.43;80.62
68943;DHT22;60852;52.190;4.422;2022-09-09T00:10:54;17.41;80.80
68943;DHT22;60852;52.190;4.422;2022-09-09T00:13:46;17.30;80.97
68943;DHT22;60852;52.190;4.422;2022-09-09T00:21:17;17.27;81.58
68943;DHT22;60852;52.190;4.422;2022-09-09T00:23:51;17.32;81.48
68943;DHT22;60852;52.190;4.422;2022-09-09T00:26:38;17.27;81.48
68943;DHT22;60852;52.190;4.422;2022-09-09T00:29:31;17.17;81.97
68943;DHT22;60852;52.190;4.422;2022-09-09T00:32:11;17.21;81.98
68943;DHT22;60852;52.190;4.422;2022-09-09T00:35:27;17.22;81.97
68943;DHT22;60852;52.190;4.422;2022-09-09T00:37:32;17.27;81.82
68943;DHT22;60852;52.190;4.422;2022-09-09T00:40:02;17.27;81.80
68943;DHT22;60852;52.190;4.422;2022-09-09T00:42:42;17.30;81.73
68943;DHT22;60852;52.190;4.422;2022-09-09T00:47:46;17.32;81.66
68943;DHT22;60852;52.190;4.422;2022-09-09T00:52:58;17.31;81.55
68943;DHT22;60852;52.190;4.422;2022-09-09T00:55:41;17.30;81.75
68943;DHT22;60852;52.190;4.422;2022-09-09T00:58:10;17.22;81.96
68943;DHT22;60852;52.190;4.422;2022-09-09T01:01:24;17.22;82.17
68943;DHT22;60852;52.190;4.422;2022-09-09T01:03:49;17.24;82.11
68943;DHT22;60852;52.190;4.422;2022-09-09T01:06:20;17.22;82.15
68943;DHT22;60852;52.190;4.422;2022-09-09T01:09:27;17.20;82.26
68943;DHT22;60852;52.190;4.422;2022-09-09T01:17:14;17.10;82.68
68943;DHT22;60852;52.190;4.422;2022-09-09T01:25:20;17.15;82.72
68943;DHT22;60852;52.190;4.422;2022-09-09T01:27:52;17.15;82.68
68943;DHT22;60852;52.190;4.422;2022-09-09T01:30:21;17.20;82.71
68943;DHT22;60852;52.190;4.422;2022-09-09T01:32:54;17.30;82.53
68943;DHT22;60852;52.190;4.422;2022-09-09T01:38:01;17.27;82.62
68943;DHT22;60852;52.190;4.422;2022-09-09T01:40:27;17.25;82.72
68943;DHT22;60852;52.190;4.422;2022-09-09T01:42:54;17.25;82.87
68943;DHT22;60852;52.190;4.422;2022-09-09T01:45:21;17.28;82.74
68943;DHT22;60852;52.190;4.422;2022-09-09T01:47:48;17.27;82.69
68943;DHT22;60852;52.190;4.422;2022-09-09T01:50:16;17.28;82.66
68943;DHT22;60852;52.190;4.422;2022-09-09T01:52:44;17.30;82.50
68943;DHT22;60852;52.190;4.422;2022-09-09T01:55:11;17.24;82.58
68943;DHT22;60852;52.190;4.422;2022-09-09T01:57:56;17.24;82.57
68943;DHT22;60852;52.190;4.422;2022-09-09T02:00:24;17.20;82.46
68943;DHT22;60852;52.190;4.422;2022-09-09T02:05:36;17.17;82.61
68943;DHT22;60852;52.190;4.422;2022-09-09T02:08:11;17.15;82.66
68943;DHT22;60852;52.190;4.422;2022-09-09T02:13:21;17.14;82.78
68943;DHT22;60852;52.190;4.422;2022-09-09T02:15:56;17.15;82.71
68943;DHT22;60852;52.190;4.422;2022-09-09T02:18:32;17.11;82.70
68943;DHT22;60852;52.190;4.422;2022-09-09T02:20:59;17.11;82.62
68943;DHT22;60852;52.190;4.422;2022-09-09T02:23:25;17.07;82.65
68943;DHT22;60852;52.190;4.422;2022-09-09T02:25:54;17.06;82.75
68943;DHT22;60852;52.190;4.422;2022-09-09T02:28:25;17.03;82.91
68943;DHT22;60852;52.190;4.422;2022-09-09T02:30:53;17.04;82.88
68943;DHT22;60852;52.190;4.422;2022-09-09T02:33:26;17.00;82.93
68943;DHT22;60852;52.190;4.422;2022-09-09T02:35:54;16.97;82.88
68943;DHT22;60852;52.190;4.422;2022-09-09T02:38:27;16.97;82.93
68943;DHT22;60852;52.190;4.422;2022-09-09T02:40:54;17.00;82.88
68943;DHT22;60852;52.190;4.422;2022-09-09T02:43:19;16.99;82.75
68943;DHT22;60852;52.190;4.422;2022-09-09T02:52:01;16.88;82.82
68943;DHT22;60852;52.190;4.422;2022-09-09T02:54:33;16.87;82.94
68943;DHT22;60852;52.190;4.422;2022-09-09T02:57:13;16.85;82.90
68943;DHT22;60852;52.190;4.422;2022-09-09T02:59:44;16.85;82.74
68943;DHT22;60852;52.190;4.422;2022-09-09T03:02:11;16.83;82.67
68943;DHT22;60852;52.190;4.422;2022-09-09T03:04:40;16.85;82.62
68943;DHT22;60852;52.190;4.422;2022-09-09T03:07:06;16.83;82.48
68943;DHT22;60852;52.190;4.422;2022-09-09T03:09:32;16.83;82.64
68943;DHT22;60852;52.190;4.422;2022-09-09T03:11:58;16.84;82.50
68943;DHT22;60852;52.190;4.422;2022-09-09T03:14:23;16.80;82.43
68943;DHT22;60852;52.190;4.422;2022-09-09T03:16:53;16.77;82.61
68943;DHT22;60852;52.190;4.422;2022-09-09T03:19:19;16.74;82.56
68943;DHT22;60852;52.190;4.422;2022-09-09T03:21:45;16.76;82.59
68943;DHT22;60852;52.190;4.422;2022-09-09T03:24:12;16.73;82.49
68943;DHT22;60852;52.190;4.422;2022-09-09T03:26:38;16.72;82.60
68943;DHT22;60852;52.190;4.422;2022-09-09T03:29:05;16.74;82.53
68943;DHT22;60852;52.190;4.422;2022-09-09T03:31:35;16.74;82.42
68943;DHT22;60852;52.190;4.422;2022-09-09T03:34:02;16.79;82.47
68943;DHT22;60852;52.190;4.422;2022-09-09T03:36:28;16.81;82.20
68943;DHT22;60852;52.190;4.422;2022-09-09T03:38:54;16.79;82.14
68943;DHT22;60852;52.190;4.422;2022-09-09T03:41:21;16.81;82.05
68943;DHT22;60852;52.190;4.422;2022-09-09T03:43:53;16.80;82.01
68943;DHT22;60852;52.190;4.422;2022-09-09T03:46:23;16.77;82.02
68943;DHT22;60852;52.190;4.422;2022-09-09T03:48:49;16.76;81.92
68943;DHT22;60852;52.190;4.422;2022-09-09T03:51:15;16.77;81.88
68943;DHT22;60852;52.190;4.422;2022-09-09T03:53:41;16.79;81.90
68943;DHT22;60852;52.190;4.422;2022-09-09T03:56:08;16.79;81.78
68943;DHT22;60852;52.190;4.422;2022-09-09T03:58:35;16.76;81.85
68943;DHT22;60852;52.190;4.422;2022-09-09T04:01:04;16.76;81.83
68943;DHT22;60852;52.190;4.422;2022-09-09T04:03:31;16.77;81.81
68943;DHT22;60852;52.190;4.422;2022-09-09T04:05:58;16.77;81.94
68943;DHT22;60852;52.190;4.422;2022-09-09T04:08:24;16.74;81.87
68943;DHT22;60852;52.190;4.422;2022-09-09T04:10:54;16.72;81.86
68943;DHT22;60852;52.190;4.422;2022-09-09T04:13:25;16.70;81.83
68943;DHT22;60852;52.190;4.422;2022-09-09T04:15:53;16.63;81.88
68943;DHT22;60852;52.190;4.422;2022-09-09T04:18:19;16.62;82.03
68943;DHT22;60852;52.190;4.422;2022-09-09T04:20:48;16.60;81.97
68943;DHT22;60852;52.190;4.422;2022-09-09T04:23:16;16.63;81.97
68943;DHT22;60852;52.190;4.422;2022-09-09T04:26:03;16.56;81.94
68943;DHT22;60852;52.190;4.422;2022-09-09T04:28:32;16.56;82.20
68943;DHT22;60852;52.190;4.422;2022-09-09T04:31:07;16.56;82.14
68943;DHT22;60852;52.190;4.422;2022-09-09T04:33:34;16.57;82.03
68943;DHT22;60852;52.190;4.422;2022-09-09T04:36:00;16.59;81.68
68943;DHT22;60852;52.190;4.422;2022-09-09T04:38:25;16.59;81.86
68943;DHT22;60852;52.190;4.422;2022-09-09T04:40:52;16.51;81.74
68943;DHT22;60852;52.190;4.422;2022-09-09T04:43:19;16.55;81.91
68943;DHT22;60852;52.190;4.422;2022-09-09T04:45:50;16.56;81.83
68943;DHT22;60852;52.190;4.422;2022-09-09T04:48:17;16.52;81.83
68943;DHT22;60852;52.190;4.422;2022-09-09T04:50:42;16.51;81.85
68943;DHT22;60852;52.190;4.422;2022-09-09T04:53:08;16.49;82.05
68943;DHT22;60852;52.190;4.422;2022-09-09T04:55:35;16.48;82.12
68943;DHT22;60852;52.190;4.422;2022-09-09T04:58:08;16.52;81.98
68943;DHT22;60852;52.190;4.422;2022-09-09T05:00:35;16.51;81.53
68943;DHT22;60852;52.190;4.422;2022-09-09T05:03:05;16.45;81.71
68943;DHT22;60852;52.190;4.422;2022-09-09T05:05:32;16.43;81.84
68943;DHT22;60852;52.190;4.422;2022-09-09T05:08:06;16.43;81.76
68943;DHT22;60852;52.190;4.422;2022-09-09T05:10:33;16.42;81.80
68943;DHT22;60852;52.190;4.422;2022-09-09T05:12:59;16.41;82.00
68943;DHT22;60852;52.190;4.422;2022-09-09T05:15:25;16.42;81.92
68943;DHT22;60852;52.190;4.422;2022-09-09T05:17:50;16.42;81.82
68943;DHT22;60852;52.190;4.422;2022-09-09T05:20:17;16.43;81.78
68943;DHT22;60852;52.190;4.422;2022-09-09T05:22:44;16.46;81.81
68943;DHT22;60852;52.190;4.422;2022-09-09T05:25:09;16.43;81.77
68943;DHT22;60852;52.190;4.422;2022-09-09T05:27:34;16.48;81.64
68943;DHT22;60852;52.190;4.422;2022-09-09T05:30:00;16.52;81.53
68943;DHT22;60852;52.190;4.422;2022-09-09T05:32:25;16.45;81.72
68943;DHT22;60852;52.190;4.422;2022-09-09T05:34:51;16.48;81.76
68943;DHT22;60852;52.190;4.422;2022-09-09T05:37:18;16.55;81.60
68943;DHT22;60852;52.190;4.422;2022-09-09T05:39:43;16.62;81.64
68943;DHT22;60852;52.190;4.422;2022-09-09T05:42:09;16.72;81.42
68943;DHT22;60852;52.190;4.422;2022-09-09T05:44:34;16.80;81.21
68943;DHT22;60852;52.190;4.422;2022-09-09T05:46:59;16.81;81.07
68943;DHT22;60852;52.190;4.422;2022-09-09T05:49:25;16.81;81.23
68943;DHT22;60852;52.190;4.422;2022-09-09T05:51:51;16.90;81.14
68943;DHT22;60852;52.190;4.422;2022-09-09T05:54:17;16.94;80.88
68943;DHT22;60852;52.190;4.422;2022-09-09T05:56:43;16.88;80.93
68943;DHT22;60852;52.190;4.422;2022-09-09T05:59:08;16.93;81.13
68943;DHT22;60852;52.190;4.422;2022-09-09T06:01:36;17.01;80.66
68943;DHT22;60852;52.190;4.422;2022-09-09T06:04:02;17.04;80.48
68943;DHT22;60852;52.190;4.422;2022-09-09T06:06:34;17.11;80.28
68943;DHT22;60852;52.190;4.422;2022-09-09T06:09:06;17.03;80.49
68943;DHT22;60852;52.190;4.422;2022-09-09T06:11:38;17.04;80.23
68943;DHT22;60852;52.190;4.422;2022-09-09T06:14:05;17.06;80.64
68943;DHT22;60852;52.190;4.422;2022-09-09T06:16:31;17.12;80.41
68943;DHT22;60852;52.190;4.422;2022-09-09T06:18:58;17.12;80.43
68943;DHT22;60852;52.190;4.422;2022-09-09T06:21:26;17.17;80.41
68943;DHT22;60852;52.190;4.422;2022-09-09T06:23:52;17.20;80.21
68943;DHT22;60852;52.190;4.422;2022-09-09T06:28:52;17.28;79.98
68943;DHT22;60852;52.190;4.422;2022-09-09T06:31:23;17.27;79.86
68943;DHT22;60852;52.190;4.422;2022-09-09T06:33:51;17.34;79.89
68943;DHT22;60852;52.190;4.422;2022-09-09T06:36:22;17.41;79.75
68943;DHT22;60852;52.190;4.422;2022-09-09T06:38:48;17.48;79.33
68943;DHT22;60852;52.190;4.422;2022-09-09T06:41:16;17.45;79.50
68943;DHT22;60852;52.190;4.422;2022-09-09T06:43:44;17.49;79.38
68943;DHT22;60852;52.190;4.422;2022-09-09T06:46:15;17.52;79.18
68943;DHT22;60852;52.190;4.422;2022-09-09T06:48:42;17.49;79.18
68943;DHT22;60852;52.190;4.422;2022-09-09T06:51:18;17.46;79.26
68943;DHT22;60852;52.190;4.422;2022-09-09T06:53:46;17.46;79.53
68943;DHT22;60852;52.190;4.422;2022-09-09T06:58:43;17.49;79.41
68943;DHT22;60852;52.190;4.422;2022-09-09T07:01:13;17.49;79.51
68943;DHT22;60852;52.190;4.422;2022-09-09T07:03:39;17.48;79.41
68943;DHT22;60852;52.190;4.422;2022-09-09T07:06:06;17.52;79.44
68943;DHT22;60852;52.190;4.422;2022-09-09T07:08:33;17.55;79.11
68943;DHT22;60852;52.190;4.422;2022-09-09T07:11:06;17.59;79.02
68943;DHT22;60852;52.190;4.422;2022-09-09T07:13:33;17.71;78.76
68943;DHT22;60852;52.190;4.422;2022-09-09T07:16:11;17.82;78.38
68943;DHT22;60852;52.190;4.422;2022-09-09T07:18:37;17.85;77.69
68943;DHT22;60852;52.190;4.422;2022-09-09T07:21:03;17.82;78.25
68943;DHT22;60852;52.190;4.422;2022-09-09T07:23:29;17.83;78.22
68943;DHT22;60852;52.190;4.422;2022-09-09T07:25:56;17.82;78.15
68943;DHT22;60852;52.190;4.422;2022-09-09T07:28:23;17.94;77.93
68943;DHT22;60852;52.190;4.422;2022-09-09T07:33:21;17.89;77.71
68943;DHT22;60852;52.190;4.422;2022-09-09T07:35:47;17.89;78.04
68943;DHT22;60852;52.190;4.422;2022-09-09T07:38:12;17.89;77.89
68943;DHT22;60852;52.190;4.422;2022-09-09T07:40:38;17.92;77.79
68943;DHT22;60852;52.190;4.422;2022-09-09T07:43:04;17.89;77.97
68943;DHT22;60852;52.190;4.422;2022-09-09T07:45:30;17.87;78.04
68943;DHT22;60852;52.190;4.422;2022-09-09T07:47:57;17.89;77.85
68943;DHT22;60852;52.190;4.422;2022-09-09T07:50:23;17.86;77.92
68943;DHT22;60852;52.190;4.422;2022-09-09T07:52:50;17.85;77.83
68943;DHT22;60852;52.190;4.422;2022-09-09T07:55:16;17.83;77.65
68943;DHT22;60852;52.190;4.422;2022-09-09T07:57:42;17.86;77.77
68943;DHT22;60852;52.190;4.422;2022-09-09T08:00:07;17.87;77.86
68943;DHT22;60852;52.190;4.422;2022-09-09T08:02:33;17.90;77.72
68943;DHT22;60852;52.190;4.422;2022-09-09T08:04:59;17.92;77.67
68943;DHT22;60852;52.190;4.422;2022-09-09T08:07:24;17.97;77.68
68943;DHT22;60852;52.190;4.422;2022-09-09T08:09:49;18.03;77.33
68943;DHT22;60852;52.190;4.422;2022-09-09T08:12:15;18.06;77.44
68943;DHT22;60852;52.190;4.422;2022-09-09T08:14:41;18.07;77.22
68943;DHT22;60852;52.190;4.422;2022-09-09T08:17:07;18.10;77.42
68943;DHT22;60852;52.190;4.422;2022-09-09T08:19:33;18.16;77.10
68943;DHT22;60852;52.190;4.422;2022-09-09T08:22:02;18.23;77.31
68943;DHT22;60852;52.190;4.422;2022-09-09T08:24:28;18.21;77.17
68943;DHT22;60852;52.190;4.422;2022-09-09T08:26:54;18.23;76.91
68943;DHT22;60852;52.190;4.422;2022-09-09T08:29:20;18.18;76.73
68943;DHT22;60852;52.190;4.422;2022-09-09T08:31:54;18.21;76.83
68943;DHT22;60852;52.190;4.422;2022-09-09T08:34:21;18.24;76.79
68943;DHT22;60852;52.190;4.422;2022-09-09T08:36:48;18.26;76.77
68943;DHT22;60852;52.190;4.422;2022-09-09T08:39:16;18.30;76.77
68943;DHT22;60852;52.190;4.422;2022-09-09T08:50:22;18.20;76.62
68943;DHT22;60852;52.190;4.422;2022-09-09T08:58:17;18.24;76.85
68943;DHT22;60852;52.190;4.422;2022-09-09T09:09:11;18.27;77.03
68943;DHT22;60852;52.190;4.422;2022-09-09T09:11:55;18.21;76.90
68943;DHT22;60852;52.190;4.422;2022-09-09T09:14:24;18.24;77.14
68943;DHT22;60852;52.190;4.422;2022-09-09T09:17:05;18.29;77.21
68943;DHT22;60852;52.190;4.422;2022-09-09T09:19:38;18.36;77.78
68943;DHT22;60852;52.190;4.422;2022-09-09T09:24:54;18.29;78.95
68943;DHT22;60852;52.190;4.422;2022-09-09T09:27:35;18.26;78.89
68943;DHT22;60852;52.190;4.422;2022-09-09T09:30:16;18.24;79.82
68943;DHT22;60852;52.190;4.422;2022-09-09T09:32:56;18.30;79.93
68943;DHT22;60852;52.190;4.422;2022-09-09T09:35:23;18.30;79.80
68943;DHT22;60852;52.190;4.422;2022-09-09T09:37:49;18.36;79.21
68943;DHT22;60852;52.190;4.422;2022-09-09T09:40:17;18.31;79.89
68943;DHT22;60852;52.190;4.422;2022-09-09T09:43:02;18.38;79.96
68943;DHT22;60852;52.190;4.422;2022-09-09T09:45:41;18.55;79.99
68943;DHT22;60852;52.190;4.422;2022-09-09T09:48:10;18.96;79.00
68943;DHT22;60852;52.190;4.422;2022-09-09T09:53:30;19.26;77.59
68943;DHT22;60852;52.190;4.422;2022-09-09T09:56:08;19.37;77.87
68943;DHT22;60852;52.190;4.422;2022-09-09T09:58:50;19.31;77.48
68943;DHT22;60852;52.190;4.422;2022-09-09T10:01:31;19.22;77.04
68943;DHT22;60852;52.190;4.422;2022-09-09T10:04:22;19.22;77.63
68943;DHT22;60852;52.190;4.422;2022-09-09T10:06:49;19.16;77.29
68943;DHT22;60852;52.190;4.422;2022-09-09T10:09:27;19.09;77.24
68943;DHT22;60852;52.190;4.422;2022-09-09T10:18:17;18.75;79.81
68943;DHT22;60852;52.190;4.422;2022-09-09T10:24:07;18.50;80.91
68943;DHT22;60852;52.190;4.422;2022-09-09T10:27:01;18.45;81.43
68943;DHT22;60852;52.190;4.422;2022-09-09T10:29:40;18.29;81.93
68943;DHT22;60852;52.190;4.422;2022-09-09T10:32:17;18.24;82.13
68943;DHT22;60852;52.190;4.422;2022-09-09T10:34:56;18.23;82.34
68943;DHT22;60852;52.190;4.422;2022-09-09T10:40:28;18.29;82.87
68943;DHT22;60852;52.190;4.422;2022-09-09T10:48:31;18.33;81.82
68943;DHT22;60852;52.190;4.422;2022-09-09T10:51:22;18.31;82.03
68943;DHT22;60852;52.190;4.422;2022-09-09T10:54:09;18.31;82.36
68943;DHT22;60852;52.190;4.422;2022-09-09T10:56:43;18.33;81.97
68943;DHT22;60852;52.190;4.422;2022-09-09T10:59:18;18.29;82.25
68943;DHT22;60852;52.190;4.422;2022-09-09T11:01:47;18.26;82.07
68943;DHT22;60852;52.190;4.422;2022-09-09T11:04:23;18.11;82.15
68943;DHT22;60852;52.190;4.422;2022-09-09T11:06:54;17.99;83.08
68943;DHT22;60852;52.190;4.422;2022-09-09T11:09:25;17.97;83.28
68943;DHT22;60852;52.190;4.422;2022-09-09T11:11:54;18.03;83.23
68943;DHT22;60852;52.190;4.422;2022-09-09T11:14:36;18.30;83.89
68943;DHT22;60852;52.190;4.422;2022-09-09T11:17:31;18.69;83.20
68943;DHT22;60852;52.190;4.422;2022-09-09T11:19:58;18.99;82.70
68943;DHT22;60852;52.190;4.422;2022-09-09T11:22:28;19.16;81.34
68943;DHT22;60852;52.190;4.422;2022-09-09T11:25:15;19.34;80.45
68943;DHT22;60852;52.190;4.422;2022-09-09T11:33:55;19.63;79.34
68943;DHT22;60852;52.190;4.422;2022-09-09T11:36:38;19.68;79.06
68943;DHT22;60852;52.190;4.422;2022-09-09T11:39:22;19.87;79.02
68943;DHT22;60852;52.190;4.422;2022-09-09T11:41:51;20.01;78.10
68943;DHT22;60852;52.190;4.422;2022-09-09T11:44:28;20.14;78.32
68943;DHT22;60852;52.190;4.422;2022-09-09T11:46:55;20.18;77.15
68943;DHT22;60852;52.190;4.422;2022-09-09T11:49:40;20.29;78.03
68943;DHT22;60852;52.190;4.422;2022-09-09T11:54:49;19.95;76.93
68943;DHT22;60852;52.190;4.422;2022-09-09T11:57:31;19.75;77.20
68943;DHT22;60852;52.190;4.422;2022-09-09T11:59:57;19.46;78.04
68943;DHT22;60852;52.190;4.422;2022-09-09T12:02:26;19.33;79.73
68943;DHT22;60852;52.190;4.422;2022-09-09T12:05:00;19.27;80.71
68943;DHT22;60852;52.190;4.422;2022-09-09T12:12:43;18.65;82.01
68943;DHT22;60852;52.190;4.422;2022-09-09T12:17:45;18.81;82.05
68943;DHT22;60852;52.190;4.422;2022-09-09T12:23:12;19.19;81.74
68943;DHT22;60852;52.190;4.422;2022-09-09T12:26:06;19.30;81.35
68943;DHT22;60852;52.190;4.422;2022-09-09T12:40:01;19.63;78.96
68943;DHT22;60852;52.190;4.422;2022-09-09T12:42:28;19.60;78.94
68943;DHT22;60852;52.190;4.422;2022-09-09T12:45:02;19.47;78.84
68943;DHT22;60852;52.190;4.422;2022-09-09T12:47:42;19.34;79.84
68943;DHT22;60852;52.190;4.422;2022-09-09T12:50:19;19.41;79.92
68943;DHT22;60852;52.190;4.422;2022-09-09T12:52:48;19.53;79.24
68943;DHT22;60852;52.190;4.422;2022-09-09T12:55:21;19.53;79.97
68943;DHT22;60852;52.190;4.422;2022-09-09T12:57:51;19.70;80.12
68943;DHT22;60852;52.190;4.422;2022-09-09T13:00:23;19.74;79.32
68943;DHT22;60852;52.190;4.422;2022-09-09T13:02:58;19.67;79.35
68943;DHT22;60852;52.190;4.422;2022-09-09T13:05:34;19.67;79.32
68943;DHT22;60852;52.190;4.422;2022-09-09T13:08:02;19.71;79.27
68943;DHT22;60852;52.190;4.422;2022-09-09T13:10:33;19.64;79.04
68943;DHT22;60852;52.190;4.422;2022-09-09T13:13:01;19.67;79.70
68943;DHT22;60852;52.190;4.422;2022-09-09T13:15:29;19.58;78.81
68943;DHT22;60852;52.190;4.422;2022-09-09T13:18:02;19.39;79.68
68943;DHT22;60852;52.190;4.422;2022-09-09T13:20:28;19.45;80.41
68943;DHT22;60852;52.190;4.422;2022-09-09T13:22:55;19.49;80.68
68943;DHT22;60852;52.190;4.422;2022-09-09T13:25:29;19.53;80.71
68943;DHT22;60852;52.190;4.422;2022-09-09T13:28:00;19.54;80.31
68943;DHT22;60852;52.190;4.422;2022-09-09T13:33:00;19.16;80.99
68943;DHT22;60852;52.190;4.422;2022-09-09T13:35:26;19.24;81.39
68943;DHT22;60852;52.190;4.422;2022-09-09T13:37:52;19.30;81.36
68943;DHT22;60852;52.190;4.422;2022-09-09T13:40:21;19.37;81.16
68943;DHT22;60852;52.190;4.422;2022-09-09T13:42:50;19.39;81.05
68943;DHT22;60852;52.190;4.422;2022-09-09T13:45:26;19.26;80.66
68943;DHT22;60852;52.190;4.422;2022-09-09T13:47:53;19.15;81.26
68943;DHT22;60852;52.190;4.422;2022-09-09T13:50:28;19.15;81.67
68943;DHT22;60852;52.190;4.422;2022-09-09T13:52:58;19.16;81.63
68943;DHT22;60852;52.190;4.422;2022-09-09T13:55:27;19.09;81.84
68943;DHT22;60852;52.190;4.422;2022-09-09T13:58:03;19.08;81.73
68943;DHT22;60852;52.190;4.422;2022-09-09T14:00:33;19.10;81.55
68943;DHT22;60852;52.190;4.422;2022-09-09T14:03:00;19.03;81.36
68943;DHT22;60852;52.190;4.422;2022-09-09T14:05:29;18.98;81.13
68943;DHT22;60852;52.190;4.422;2022-09-09T14:07:55;18.73;81.73
68943;DHT22;60852;52.190;4.422;2022-09-09T14:10:20;18.52;82.23
68943;DHT22;60852;52.190;4.422;2022-09-09T14:12:46;18.27;82.12
68943;DHT22;60852;52.190;4.422;2022-09-09T14:15:12;18.06;83.02
68943;DHT22;60852;52.190;4.422;2022-09-09T14:17:37;18.03;83.75
68943;DHT22;60852;52.190;4.422;2022-09-09T14:20:04;18.10;83.52
68943;DHT22;60852;52.190;4.422;2022-09-09T14:22:33;18.04;83.42
68943;DHT22;60852;52.190;4.422;2022-09-09T14:24:59;18.03;83.46
68943;DHT22;60852;52.190;4.422;2022-09-09T14:27:24;17.92;83.38
68943;DHT22;60852;52.190;4.422;2022-09-09T14:29:52;17.79;83.98
68943;DHT22;60852;52.190;4.422;2022-09-09T14:32:18;17.86;84.21
68943;DHT22;60852;52.190;4.422;2022-09-09T14:34:43;17.87;84.32
68943;DHT22;60852;52.190;4.422;2022-09-09T14:37:09;17.87;84.74
68943;DHT22;60852;52.190;4.422;2022-09-09T14:39:35;17.83;84.76
68943;DHT22;60852;52.190;4.422;2022-09-09T14:42:01;17.75;85.44
68943;DHT22;60852;52.190;4.422;2022-09-09T14:44:27;17.72;85.48
68943;DHT22;60852;52.190;4.422;2022-09-09T14:46:53;17.71;85.92
68943;DHT22;60852;52.190;4.422;2022-09-09T14:49:19;17.71;86.23
68943;DHT22;60852;52.190;4.422;2022-09-09T14:51:45;17.72;86.19
68943;DHT22;60852;52.190;4.422;2022-09-09T14:54:10;17.78;85.95
68943;DHT22;60852;52.190;4.422;2022-09-09T14:56:36;17.79;85.71
68943;DHT22;60852;52.190;4.422;2022-09-09T14:59:02;17.76;86.13
68943;DHT22;60852;52.190;4.422;2022-09-09T15:01:30;17.73;86.35
68943;DHT22;60852;52.190;4.422;2022-09-09T15:03:58;17.68;86.22
68943;DHT22;60852;52.190;4.422;2022-09-09T15:06:26;17.65;85.44
68943;DHT22;60852;52.190;4.422;2022-09-09T15:08:53;17.68;85.80
68943;DHT22;60852;52.190;4.422;2022-09-09T15:11:20;17.66;85.71
68943;DHT22;60852;52.190;4.422;2022-09-09T15:13:46;17.62;85.97
68943;DHT22;60852;52.190;4.422;2022-09-09T15:16:17;17.63;85.96
68943;DHT22;60852;52.190;4.422;2022-09-09T15:18:44;17.68;85.98
68943;DHT22;60852;52.190;4.422;2022-09-09T15:21:18;17.71;85.89
68943;DHT22;60852;52.190;4.422;2022-09-09T15:23:47;17.80;85.83
68943;DHT22;60852;52.190;4.422;2022-09-09T15:26:16;17.83;85.25
68943;DHT22;60852;52.190;4.422;2022-09-09T15:28:44;17.86;85.24
68943;DHT22;60852;52.190;4.422;2022-09-09T15:31:16;17.94;84.62
68943;DHT22;60852;52.190;4.422;2022-09-09T15:33:48;17.92;85.03
68943;DHT22;60852;52.190;4.422;2022-09-09T15:36:18;17.89;85.56
68943;DHT22;60852;52.190;4.422;2022-09-09T15:38:44;17.86;84.32
68943;DHT22;60852;52.190;4.422;2022-09-09T15:41:11;17.92;83.86
68943;DHT22;60852;52.190;4.422;2022-09-09T15:43:38;17.99;83.69
68943;DHT22;60852;52.190;4.422;2022-09-09T15:48:55;18.10;84.55
68943;DHT22;60852;52.190;4.422;2022-09-09T15:51:21;18.16;84.94
68943;DHT22;60852;52.190;4.422;2022-09-09T15:53:51;18.24;84.77
68943;DHT22;60852;52.190;4.422;2022-09-09T15:56:19;18.31;84.64
68943;DHT22;60852;52.190;4.422;2022-09-09T15:58:44;18.44;84.77
68943;DHT22;60852;52.190;4.422;2022-09-09T16:01:10;18.65;84.25
68943;DHT22;60852;52.190;4.422;2022-09-09T16:03:41;18.89;84.29
68943;DHT22;60852;52.190;4.422;2022-09-09T16:06:08;19.03;83.68
68943;DHT22;60852;52.190;4.422;2022-09-09T16:08:43;19.13;83.25
68943;DHT22;60852;52.190;4.422;2022-09-09T16:11:18;19.23;83.48
68943;DHT22;60852;52.190;4.422;2022-09-09T16:13:46;19.30;83.20
68943;DHT22;60852;52.190;4.422;2022-09-09T16:16:14;19.39;83.34
68943;DHT22;60852;52.190;4.422;2022-09-09T16:18:43;19.43;82.87
68943;DHT22;60852;52.190;4.422;2022-09-09T16:21:16;19.39;82.74
68943;DHT22;60852;52.190;4.422;2022-09-09T16:23:42;19.45;82.94
68943;DHT22;60852;52.190;4.422;2022-09-09T16:26:11;19.50;82.81
68943;DHT22;60852;52.190;4.422;2022-09-09T16:28:38;19.51;82.82
68943;DHT22;60852;52.190;4.422;2022-09-09T16:31:10;19.45;82.20
68943;DHT22;60852;52.190;4.422;2022-09-09T16:33:36;19.37;82.43
68943;DHT22;60852;52.190;4.422;2022-09-09T16:36:10;19.36;82.03
68943;DHT22;60852;52.190;4.422;2022-09-09T16:38:38;19.29;82.14
68943;DHT22;60852;52.190;4.422;2022-09-09T16:41:05;19.26;82.55
68943;DHT22;60852;52.190;4.422;2022-09-09T16:43:35;19.27;82.40
68943;DHT22;60852;52.190;4.422;2022-09-09T16:46:02;19.26;82.52
68943;DHT22;60852;52.190;4.422;2022-09-09T16:48:33;19.27;82.08
68943;DHT22;60852;52.190;4.422;2022-09-09T16:51:08;19.29;82.47
68943;DHT22;60852;52.190;4.422;2022-09-09T16:53:34;19.26;82.06
68943;DHT22;60852;52.190;4.422;2022-09-09T16:56:07;19.27;81.80
68943;DHT22;60852;52.190;4.422;2022-09-09T16:58:33;19.23;81.66
68943;DHT22;60852;52.190;4.422;2022-09-09T17:01:00;19.19;82.34
68943;DHT22;60852;52.190;4.422;2022-09-09T17:03:27;19.15;82.36
68943;DHT22;60852;52.190;4.422;2022-09-09T17:05:52;19.09;82.27
68943;DHT22;60852;52.190;4.422;2022-09-09T17:08:17;18.99;81.91
68943;DHT22;60852;52.190;4.422;2022-09-09T17:10:43;18.96;82.19
68943;DHT22;60852;52.190;4.422;2022-09-09T17:13:10;18.98;82.48
68943;DHT22;60852;52.190;4.422;2022-09-09T17:15:40;18.91;82.47
68943;DHT22;60852;52.190;4.422;2022-09-09T17:18:12;18.89;82.39
68943;DHT22;60852;52.190;4.422;2022-09-09T17:20:39;18.72;82.02
68943;DHT22;60852;52.190;4.422;2022-09-09T17:23:05;18.67;81.48
68943;DHT22;60852;52.190;4.422;2022-09-09T17:25:31;18.67;81.30
68943;DHT22;60852;52.190;4.422;2022-09-09T17:27:57;18.65;81.01
68943;DHT22;60852;52.190;4.422;2022-09-09T17:30:23;18.64;80.98
68943;DHT22;60852;52.190;4.422;2022-09-09T17:32:49;18.68;81.22
68943;DHT22;60852;52.190;4.422;2022-09-09T17:35:14;18.71;81.29
68943;DHT22;60852;52.190;4.422;2022-09-09T17:37:40;18.72;81.48
68943;DHT22;60852;52.190;4.422;2022-09-09T17:40:07;18.76;81.36
68943;DHT22;60852;52.190;4.422;2022-09-09T17:42:33;18.73;81.20
68943;DHT22;60852;52.190;4.422;2022-09-09T17:44:59;18.75;81.21
68943;DHT22;60852;52.190;4.422;2022-09-09T17:47:24;18.78;81.25
68943;DHT22;60852;52.190;4.422;2022-09-09T17:49:51;18.84;81.44
68943;DHT22;60852;52.190;4.422;2022-09-09T17:52:16;18.88;81.42
68943;DHT22;60852;52.190;4.422;2022-09-09T17:54:42;18.82;81.14